Lemmon, South Dakota
Current Conditions -  °F | °C
As of 6:53 PM on Wednesday 17 Dec 2014 (Local Time) from KHEI Reporting Station
Haze Haze  
Wind Chill:   Ceiling: 300
Heat Index: 17°   Visibility: 5mi
Dew Point: 15°   Wind: 13mph
Humidity: 92%   Direction: 150°SSE
Pressure: 30.06"   Gusts: NA
Location:  45.94°N, 102.16°W
Report Text: KHEI 180153Z AUTO 15011KT 5SM BR OVC003 M08/M09 A3006 RMK AO2 SLP228 I1000 T10831094
Loading
Personal Weather Stations






























Interactive Weather Map New forecast layout! Learn more

10-Day Weather Forecast

Advertisements
Track Severe Weather on mobile